createdAt,value
2022-10-22T00:00:10.332Z,100182.88
2022-10-22T00:02:36.777Z,100167.06
2022-10-22T00:05:06.031Z,100160.28
2022-10-22T00:07:32.853Z,100169.38
2022-10-22T00:10:01.777Z,100173.19
2022-10-22T00:12:28.494Z,100187.56
2022-10-22T00:14:55.322Z,100187.38
2022-10-22T00:17:21.781Z,100192.41
2022-10-22T00:19:48.228Z,100203.22
2022-10-22T00:22:14.866Z,100210.59
2022-10-22T00:24:43.978Z,100218.81
2022-10-22T00:27:12.686Z,100214.81
2022-10-22T00:29:43.718Z,100228.50
2022-10-22T00:32:10.077Z,100235.47
2022-10-22T00:34:36.547Z,100243.69
2022-10-22T00:37:02.926Z,100244.31
2022-10-22T00:39:32.583Z,100247.69
2022-10-22T00:42:01.983Z,100253.56
2022-10-22T00:45:05.931Z,100245.09
2022-10-22T00:47:55.303Z,100252.69
2022-10-22T00:50:28.215Z,100243.38
2022-10-22T00:52:55.451Z,100237.47
2022-10-22T00:55:23.691Z,100233.25
2022-10-22T00:57:55.563Z,100231.81
2022-10-22T01:00:22.403Z,100237.25
2022-10-22T01:02:53.647Z,100233.25
2022-10-22T01:05:20.961Z,100233.91
2022-10-22T01:07:51.223Z,100245.09
2022-10-22T01:10:28.956Z,100244.22
2022-10-22T01:13:08.089Z,100230.94
2022-10-22T01:15:56.123Z,100228.84
2022-10-22T01:18:51.704Z,100228.22
2022-10-22T01:21:24.648Z,100234.13
2022-10-22T01:24:11.673Z,100232.44
2022-10-22T01:26:43.962Z,100233.72
2022-10-22T01:29:20.750Z,100243.22
2022-10-22T01:32:01.123Z,100260.94
2022-10-22T01:34:30.736Z,100268.97
2022-10-22T01:36:59.554Z,100272.13
2022-10-22T01:39:28.237Z,100258.19
2022-10-22T01:41:56.147Z,100267.06
2022-10-22T01:44:29.048Z,100272.53
2022-10-22T01:47:10.799Z,100261.75
2022-10-22T01:49:55.915Z,100268.72
2022-10-22T01:52:28.317Z,100259.41
2022-10-22T01:55:14.574Z,100256.47
2022-10-22T01:58:15.250Z,100262.56
2022-10-22T02:00:54.670Z,100259.81
2022-10-22T02:03:34.052Z,100259.84
2022-10-22T02:06:08.700Z,100250.53
2022-10-22T02:08:46.103Z,100248.25
2022-10-22T02:11:14.728Z,100244.03
2022-10-22T02:13:54.929Z,100239.41
2022-10-22T02:16:36.539Z,100235.81
2022-10-22T02:19:11.149Z,100216.16
2022-10-22T02:21:37.816Z,100209.22
2022-10-22T02:24:04.542Z,100201.00
2022-10-22T02:26:42.160Z,100202.03
2022-10-22T02:29:23.219Z,100199.50
2022-10-22T02:31:53.605Z,100203.75
2022-10-22T02:34:24.771Z,100189.19
2022-10-22T02:36:56.591Z,100180.94
2022-10-22T02:39:23.342Z,100161.34
2022-10-22T02:41:52.065Z,100173.81
2022-10-22T02:44:21.996Z,100173.41
2022-10-22T02:46:49.135Z,100189.84
2022-10-22T02:49:15.920Z,100221.47
2022-10-22T02:51:42.433Z,100204.22
2022-10-22T02:54:08.785Z,100208.22
2022-10-22T02:56:35.467Z,100216.03
2022-10-22T02:59:01.898Z,100202.09
2022-10-22T03:01:28.322Z,100197.88
2022-10-22T03:03:57.237Z,100181.22
2022-10-22T03:06:23.635Z,100178.06
2022-10-22T03:08:50.240Z,100172.78
2022-10-22T03:11:16.654Z,100180.59
2022-10-22T03:13:43.303Z,100183.75
2022-10-22T03:16:09.742Z,100184.00
2022-10-22T03:18:36.216Z,100162.72
2022-10-22T03:21:13.744Z,100167.94
2022-10-22T03:23:45.038Z,100171.75
2022-10-22T03:26:13.303Z,100171.75
2022-10-22T03:28:41.127Z,100173.22
2022-10-22T03:31:07.762Z,100179.75
2022-10-22T03:33:34.257Z,100183.75
2022-10-22T03:36:00.783Z,100218.56
2022-10-22T03:38:27.359Z,100255.06
2022-10-22T03:40:56.113Z,100260.53
2022-10-22T03:43:25.022Z,100275.31
2022-10-22T03:45:51.444Z,100270.25
2022-10-22T03:48:20.207Z,100278.28
2022-10-22T03:50:46.753Z,100274.28
2022-10-22T03:53:13.277Z,100281.84
2022-10-22T03:55:41.536Z,100277.00
2022-10-22T03:58:08.044Z,100286.09
2022-10-22T04:00:35.555Z,100290.31
2022-10-22T04:03:01.997Z,100286.72
2022-10-22T04:05:28.624Z,100290.91
2022-10-22T04:07:57.179Z,100295.75
2022-10-22T04:10:23.657Z,100307.06
2022-10-22T04:12:50.448Z,100306.38
2022-10-22T04:15:19.438Z,100322.78
2022-10-22T04:17:45.921Z,100324.25
2022-10-22T04:20:12.396Z,100339.38
2022-10-22T04:22:38.762Z,100338.50
2022-10-22T04:25:08.235Z,100341.63
2022-10-22T04:27:35.903Z,100355.06
2022-10-22T04:30:03.591Z,100359.22
2022-10-22T04:32:29.986Z,100347.69
2022-10-22T04:35:01.289Z,100347.59
2022-10-22T04:37:27.704Z,100359.84
2022-10-22T04:39:58.145Z,100361.72
2022-10-22T04:42:25.050Z,100353.88
2022-10-22T04:44:51.496Z,100356.59
2022-10-22T04:47:20.393Z,100359.69
2022-10-22T04:49:46.770Z,100358.22
2022-10-22T04:52:13.215Z,100366.19
2022-10-22T04:54:39.868Z,100355.63
2022-10-22T04:57:06.353Z,100356.88
2022-10-22T04:59:32.808Z,100355.00
2022-10-22T05:01:59.178Z,100364.50
2022-10-22T05:04:27.715Z,100363.06
2022-10-22T05:06:56.289Z,100357.38
2022-10-22T05:09:22.661Z,100360.31
2022-10-22T05:11:51.701Z,100363.94
2022-10-22T05:14:21.438Z,100366.69
2022-10-22T05:16:49.296Z,100377.06
2022-10-22T05:19:20.119Z,100378.69
2022-10-22T05:21:46.516Z,100379.47
2022-10-22T05:24:13.304Z,100381.13
2022-10-22T05:26:39.835Z,100385.09
2022-10-22T05:29:06.650Z,100391.88
2022-10-22T05:31:33.007Z,100389.75
2022-10-22T05:33:59.676Z,100391.88
2022-10-22T05:36:26.101Z,100390.59
2022-10-22T05:38:52.746Z,100394.78
2022-10-22T05:41:22.404Z,100396.47
2022-10-22T05:43:49.322Z,100395.41
2022-10-22T05:46:22.538Z,100405.28
2022-10-22T05:48:54.384Z,100406.56
2022-10-22T05:51:24.236Z,100408.44
2022-10-22T05:53:55.030Z,100399.44
2022-10-22T05:56:22.493Z,100403.63
2022-10-22T05:58:49.202Z,100408.28
2022-10-22T06:01:21.708Z,100413.50
2022-10-22T06:03:48.858Z,100412.81
2022-10-22T06:06:21.518Z,100432.59
2022-10-22T06:08:50.762Z,100425.44
2022-10-22T06:11:19.186Z,100425.63
2022-10-22T06:13:47.136Z,100435.66
2022-10-22T06:16:14.312Z,100440.59
2022-10-22T06:18:41.699Z,100442.25
2022-10-22T06:21:13.246Z,100452.50
2022-10-22T06:23:40.820Z,100444.16
2022-10-22T06:26:07.613Z,100444.94
2022-10-22T06:28:34.560Z,100455.88
2022-10-22T06:31:05.136Z,100456.41
2022-10-22T06:33:34.134Z,100459.31
2022-10-22T06:36:14.576Z,100466.84
2022-10-22T06:38:41.712Z,100478.84
2022-10-22T06:41:13.738Z,100484.31
2022-10-22T06:43:41.791Z,100476.72
2022-10-22T06:46:14.677Z,100493.81
2022-10-22T06:48:50.661Z,100493.38
2022-10-22T06:51:17.774Z,100487.38
2022-10-22T06:53:44.266Z,100487.53
2022-10-22T06:56:17.377Z,100493.00
2022-10-22T06:58:48.057Z,100501.06
2022-10-22T07:01:20.256Z,100505.09
2022-10-22T07:03:46.974Z,100506.75
2022-10-22T07:06:14.690Z,100510.00
2022-10-22T07:08:44.851Z,100518.22
2022-10-22T07:11:14.248Z,100514.53
2022-10-22T07:13:40.992Z,100525.97
2022-10-22T07:16:07.990Z,100526.47
2022-10-22T07:18:35.362Z,100528.63
2022-10-22T07:21:02.306Z,100520.41
2022-10-22T07:23:31.619Z,100531.56
2022-10-22T07:25:58.115Z,100530.97
2022-10-22T07:28:25.261Z,100538.78
2022-10-22T07:30:51.701Z,100543.91
2022-10-22T07:33:20.380Z,100541.78
2022-10-22T07:35:46.798Z,100542.47
2022-10-22T07:38:13.807Z,100549.03
2022-10-22T07:40:40.285Z,100547.56
2022-10-22T07:43:06.791Z,100550.50
2022-10-22T07:45:34.166Z,100548.00
2022-10-22T07:48:00.803Z,100546.72
2022-10-22T07:50:27.280Z,100556.00
2022-10-22T07:52:56.036Z,100566.53
2022-10-22T07:55:23.960Z,100554.97
2022-10-22T07:57:50.394Z,100551.81
2022-10-22T08:00:19.429Z,100548.44
2022-10-22T08:02:48.336Z,100557.53
2022-10-22T08:05:14.916Z,100555.22
2022-10-22T08:07:41.471Z,100554.34
2022-10-22T08:10:09.004Z,100555.22
2022-10-22T08:12:36.024Z,100555.03
2022-10-22T08:15:02.552Z,100559.03
2022-10-22T08:17:28.970Z,100557.75
2022-10-22T08:19:57.644Z,100553.59
2022-10-22T08:22:24.082Z,100562.03
2022-10-22T08:24:53.460Z,100558.44
2022-10-22T08:27:19.977Z,100559.72
2022-10-22T08:29:46.360Z,100557.63
2022-10-22T08:32:12.838Z,100565.00
2022-10-22T08:34:41.828Z,100567.53
2022-10-22T08:37:08.604Z,100561.22
2022-10-22T08:39:35.490Z,100571.34
2022-10-22T08:42:13.380Z,100577.69
2022-10-22T08:44:59.664Z,100576.19
2022-10-22T08:48:03.697Z,100581.88
2022-10-22T08:50:37.607Z,100588.84
2022-10-22T08:53:08.605Z,100590.09
2022-10-22T08:55:37.627Z,100597.69
2022-10-22T08:58:20.850Z,100605.72
2022-10-22T09:01:02.066Z,100610.78
2022-10-22T09:03:56.775Z,100605.72
2022-10-22T09:06:29.193Z,100619.03
2022-10-22T09:08:58.461Z,100623.44
2022-10-22T09:11:30.199Z,100621.97
2022-10-22T09:13:58.502Z,100616.69
2022-10-22T09:16:43.188Z,100615.19
2022-10-22T09:19:27.585Z,100615.97
2022-10-22T09:22:08.934Z,100624.84
2022-10-22T09:24:35.312Z,100619.75
2022-10-22T09:27:04.857Z,100622.72
2022-10-22T09:29:34.789Z,100623.13
2022-10-22T09:32:01.438Z,100625.44
2022-10-22T09:34:29.253Z,100626.88
2022-10-22T09:37:06.601Z,100620.41
2022-10-22T09:39:41.471Z,100633.63
2022-10-22T09:42:09.300Z,100627.88
2022-10-22T09:44:37.580Z,100623.22
2022-10-22T09:47:32.729Z,100623.03
2022-10-22T09:50:09.490Z,100624.91
2022-10-22T09:52:35.939Z,100624.28
2022-10-22T09:55:12.595Z,100621.31
2022-10-22T09:57:42.222Z,100636.72
2022-10-22T10:00:12.523Z,100632.03
2022-10-22T10:02:43.171Z,100639.63
2022-10-22T10:05:19.318Z,100629.06
2022-10-22T10:07:50.312Z,100638.53
2022-10-22T10:10:27.544Z,100642.72
2022-10-22T10:13:20.016Z,100645.94
2022-10-22T10:16:05.227Z,100639.13
2022-10-22T10:18:43.148Z,100654.94
2022-10-22T10:21:21.040Z,100650.91
2022-10-22T10:23:57.931Z,100639.72
2022-10-22T10:26:43.104Z,100642.66
2022-10-22T10:29:18.435Z,100644.91
2022-10-22T10:32:29.922Z,100640.09
2022-10-22T10:35:16.466Z,100642.19
2022-10-22T10:38:17.183Z,100648.13
2022-10-22T10:40:57.381Z,100643.97
2022-10-22T10:43:44.587Z,100644.88
2022-10-22T10:46:37.165Z,100644.88
2022-10-22T10:49:32.435Z,100642.91
2022-10-22T10:52:05.107Z,100644.03
2022-10-22T10:55:05.475Z,100644.97
2022-10-22T10:57:34.779Z,100643.28
2022-10-22T11:00:10.983Z,100644.69
2022-10-22T11:02:52.923Z,100637.66
2022-10-22T11:05:37.431Z,100631.59
2022-10-22T11:08:08.578Z,100634.09
2022-10-22T11:10:50.291Z,100622.41
2022-10-22T11:13:35.750Z,100632.16
2022-10-22T11:16:16.764Z,100627.53
2022-10-22T11:18:57.032Z,100633.50
2022-10-22T11:21:32.900Z,100625.78
2022-10-22T11:24:22.949Z,100624.91
2022-10-22T11:26:57.371Z,100631.38
2022-10-22T11:29:33.666Z,100630.38
2022-10-22T11:32:02.632Z,100630.22
2022-10-22T11:34:38.326Z,100630.84
2022-10-22T11:37:06.263Z,100637.03
2022-10-22T11:39:42.624Z,100641.31
2022-10-22T11:42:22.003Z,100629.06
2022-10-22T11:44:59.094Z,100639.69
2022-10-22T11:47:29.231Z,100645.78
2022-10-22T11:49:59.941Z,100634.31
2022-10-22T11:52:26.493Z,100637.19
2022-10-22T11:55:00.757Z,100627.16
2022-10-22T11:57:40.506Z,100627.53
2022-10-22T12:00:35.665Z,100618.50
2022-10-22T12:03:37.928Z,100601.47
2022-10-22T12:06:14.952Z,100602.22
2022-10-22T12:08:52.703Z,100609.63
2022-10-22T12:11:19.272Z,100607.72
2022-10-22T12:14:12.952Z,100595.88
2022-10-22T12:16:57.041Z,100604.53
2022-10-22T12:19:31.302Z,100596.63
2022-10-22T12:22:08.869Z,100596.03
2022-10-22T12:24:38.379Z,100592.31
2022-10-22T12:27:16.583Z,100589.06
2022-10-22T12:29:43.794Z,100587.25
2022-10-22T12:32:13.986Z,100590.50
2022-10-22T12:34:53.046Z,100598.69
2022-10-22T12:37:19.891Z,100593.38
2022-10-22T12:39:47.095Z,100588.00
2022-10-22T12:42:18.625Z,100586.06
2022-10-22T12:44:45.188Z,100584.88
2022-10-22T12:47:18.443Z,100578.13
2022-10-22T12:49:49.008Z,100578.97
2022-10-22T12:52:23.498Z,100585.91
2022-10-22T12:54:55.230Z,100582.44
2022-10-22T12:57:22.048Z,100598.56
2022-10-22T12:59:51.376Z,100578.97
2022-10-22T13:02:23.890Z,100580.19
2022-10-22T13:05:16.039Z,100586.78
2022-10-22T13:07:43.906Z,100591.72
2022-10-22T13:10:30.862Z,100581.25
2022-10-22T13:13:08.288Z,100586.66
2022-10-22T13:15:38.534Z,100587.88
2022-10-22T13:18:04.938Z,100598.56
2022-10-22T13:20:32.427Z,100579.19
2022-10-22T13:23:03.706Z,100587.03
2022-10-22T13:25:39.550Z,100580.53
2022-10-22T13:28:15.057Z,100571.25
2022-10-22T13:30:52.925Z,100572.72
2022-10-22T13:33:27.553Z,100581.25
2022-10-22T13:35:58.914Z,100574.53
2022-10-22T13:38:27.139Z,100578.63
2022-10-22T13:40:54.579Z,100581.50
2022-10-22T13:43:21.489Z,100588.59
2022-10-22T13:45:51.915Z,100575.59
2022-10-22T13:48:21.916Z,100580.66
2022-10-22T13:50:49.747Z,100580.16
2022-10-22T13:53:19.397Z,100576.78
2022-10-22T13:55:46.276Z,100573.56
2022-10-22T13:58:15.240Z,100581.13
2022-10-22T14:00:44.513Z,100576.69
2022-10-22T14:03:22.127Z,100578.38
2022-10-22T14:05:49.140Z,100572.38
2022-10-22T14:08:19.032Z,100580.88
2022-10-22T14:10:46.215Z,100573.22
2022-10-22T14:13:14.897Z,100580.03
2022-10-22T14:15:42.835Z,100574.75
2022-10-22T14:18:15.429Z,100572.72
2022-10-22T14:20:42.457Z,100583.28
2022-10-22T14:23:19.783Z,100569.47
2022-10-22T14:25:47.124Z,100575.84
2022-10-22T14:28:15.942Z,100569.72
2022-10-22T14:30:42.320Z,100568.75
2022-10-22T14:33:18.507Z,100576.19
2022-10-22T14:35:45.186Z,100578.59
2022-10-22T14:38:11.591Z,100569.22
2022-10-22T14:40:40.011Z,100577.00
2022-10-22T14:43:06.423Z,100580.00
2022-10-22T14:45:32.801Z,100572.31
2022-10-22T14:47:59.198Z,100570.16
2022-10-22T14:50:25.623Z,100571.38
2022-10-22T14:52:57.140Z,100575.59
2022-10-22T14:55:23.537Z,100575.59
2022-10-22T14:57:49.949Z,100570.78
2022-10-22T15:00:18.147Z,100575.44
2022-10-22T15:02:45.603Z,100574.44
2022-10-22T15:05:12.853Z,100572.53
2022-10-22T15:07:40.121Z,100579.59
2022-10-22T15:10:08.444Z,100577.25
2022-10-22T15:12:35.513Z,100572.34
2022-10-22T15:15:04.663Z,100587.06
2022-10-22T15:17:31.088Z,100581.94
2022-10-22T15:20:03.923Z,100570.16
2022-10-22T15:22:31.710Z,100571.53
2022-10-22T15:25:00.853Z,100578.38
2022-10-22T15:27:27.341Z,100581.06
2022-10-22T15:29:53.788Z,100585.13
2022-10-22T15:32:20.185Z,100573.69
2022-10-22T15:34:46.682Z,100582.34
2022-10-22T15:37:15.759Z,100587.00
2022-10-22T15:39:47.239Z,100580.31
2022-10-22T15:42:18.501Z,100591.16
2022-10-22T15:44:45.069Z,100595.03
2022-10-22T15:47:11.540Z,100590.44
2022-10-22T15:49:41.714Z,100581.16
2022-10-22T15:52:08.956Z,100584.19
2022-10-22T15:54:35.912Z,100583.84
2022-10-22T15:57:03.865Z,100590.25
2022-10-22T15:59:30.496Z,100589.38
2022-10-22T16:02:01.672Z,100582.03
2022-10-22T16:04:28.103Z,100584.59
2022-10-22T16:06:54.603Z,100584.47
2022-10-22T16:09:23.743Z,100586.63
2022-10-22T16:14:24.016Z,100580.59
2022-10-22T16:16:53.404Z,100581.47
2022-10-22T16:19:23.847Z,100582.75
2022-10-22T16:21:52.472Z,100579.81
2022-10-22T16:24:19.757Z,100580.06
2022-10-22T16:26:47.113Z,100582.44
2022-10-22T16:29:13.994Z,100579.31
2022-10-22T16:31:42.806Z,100582.47
2022-10-22T16:34:09.871Z,100584.59
2022-10-22T16:36:38.820Z,100580.16
2022-10-22T16:39:08.435Z,100584.59
2022-10-22T16:41:35.763Z,100587.78
2022-10-22T16:44:07.612Z,100590.56
2022-10-22T16:46:38.409Z,100588.44
2022-10-22T16:49:08.169Z,100583.41
2022-10-22T16:51:35.612Z,100597.09
2022-10-22T16:54:03.661Z,100591.00
2022-10-22T16:56:36.414Z,100589.06
2022-10-22T16:59:06.676Z,100594.38
2022-10-22T17:01:37.965Z,100599.63
2022-10-22T17:04:09.309Z,100597.09
2022-10-22T17:06:35.922Z,100594.56
2022-10-22T17:09:07.319Z,100592.22
2022-10-22T17:11:36.455Z,100605.75
2022-10-22T17:14:07.463Z,100604.47
2022-10-22T17:16:33.851Z,100605.28
2022-10-22T17:19:03.660Z,100606.75
2022-10-22T17:21:30.103Z,100613.31
2022-10-22T17:23:57.273Z,100616.84
2022-10-22T17:26:24.423Z,100620.19
2022-10-22T17:28:50.839Z,100629.50
2022-10-22T17:31:22.699Z,100625.03
2022-10-22T17:33:50.905Z,100628.59
2022-10-22T17:36:18.955Z,100624.16
2022-10-22T17:38:49.038Z,100624.13
2022-10-22T17:41:18.437Z,100631.06
2022-10-22T17:46:20.824Z,100650.84
2022-10-22T17:48:55.128Z,100655.06
2022-10-22T17:51:22.958Z,100653.56
2022-10-22T17:53:52.763Z,100653.97
2022-10-22T17:56:23.023Z,100654.16
2022-10-22T17:58:49.866Z,100664.09
2022-10-22T18:01:22.084Z,100658.75
2022-10-22T18:03:49.266Z,100653.53
2022-10-22T18:06:16.189Z,100654.81
2022-10-22T18:08:43.090Z,100653.78
2022-10-22T18:11:11.664Z,100646.75
2022-10-22T18:13:40.728Z,100644.22
2022-10-22T18:16:07.627Z,100657.28
2022-10-22T18:18:35.333Z,100654.34
2022-10-22T18:21:02.613Z,100647.34
2022-10-22T18:23:31.821Z,100655.13
2022-10-22T18:26:11.925Z,100657.66
2022-10-22T18:28:38.437Z,100659.09
2022-10-22T18:31:09.155Z,100648.75
2022-10-22T18:33:36.647Z,100648.06
2022-10-22T18:36:12.297Z,100643.41
2022-10-22T18:38:39.338Z,100636.63
2022-10-22T18:41:07.226Z,100635.34
2022-10-22T18:43:35.065Z,100631.31
2022-10-22T18:46:01.631Z,100640.13
2022-10-22T18:48:28.085Z,100630.59
2022-10-22T18:51:02.735Z,100644.91
2022-10-22T18:53:29.158Z,100637.09
2022-10-22T18:55:55.590Z,100636.91
2022-10-22T18:58:22.097Z,100628.59
2022-10-22T19:00:49.547Z,100627.31
2022-10-22T19:03:16.293Z,100621.16
2022-10-22T19:05:53.121Z,100624.31
2022-10-22T19:08:19.808Z,100628.28
2022-10-22T19:10:47.339Z,100621.13
2022-10-22T19:13:16.823Z,100620.66
2022-10-22T19:15:43.763Z,100629.28
2022-10-22T19:18:12.818Z,100617.69
2022-10-22T19:20:41.916Z,100622.50
2022-10-22T19:23:08.290Z,100620.63
2022-10-22T19:25:38.516Z,100611.88
2022-10-22T19:28:05.125Z,100618.75
2022-10-22T19:30:31.548Z,100622.09
2022-10-22T19:32:57.950Z,100612.16
2022-10-22T19:35:26.601Z,100613.41
2022-10-22T19:37:53.045Z,100613.41
2022-10-22T19:40:25.635Z,100615.88
2022-10-22T19:42:52.170Z,100607.06
2022-10-22T19:45:23.086Z,100611.06
2022-10-22T19:47:49.428Z,100610.63
2022-10-22T19:50:15.904Z,100611.66
2022-10-22T19:52:42.528Z,100612.91
2022-10-22T19:55:11.708Z,100601.09
2022-10-22T19:57:38.893Z,100605.72
2022-10-22T20:00:05.860Z,100604.25
2022-10-22T20:02:32.476Z,100604.88
2022-10-22T20:04:58.861Z,100605.28
2022-10-22T20:07:25.254Z,100610.75
2022-10-22T20:09:51.657Z,100612.81
2022-10-22T20:12:18.040Z,100620.19
2022-10-22T20:14:44.387Z,100616.97
2022-10-22T20:17:10.761Z,100618.22
2022-10-22T20:19:37.258Z,100622.00
2022-10-22T20:22:03.845Z,100633.31
2022-10-22T20:24:33.641Z,100634.38
2022-10-22T20:27:00.541Z,100634.56
2022-10-22T20:29:30.047Z,100633.72
2022-10-22T20:31:56.495Z,100636.19
2022-10-22T20:34:25.112Z,100634.50
2022-10-22T20:36:54.480Z,100630.25
2022-10-22T20:39:20.968Z,100627.16
2022-10-22T20:41:50.279Z,100632.34
2022-10-22T20:44:17.820Z,100633.84
2022-10-22T20:46:44.905Z,100634.38
2022-10-22T20:49:14.752Z,100638.34
2022-10-22T20:51:43.708Z,100627.81
2022-10-22T20:54:12.657Z,100621.47
2022-10-22T20:56:40.734Z,100614.13
2022-10-22T20:59:10.628Z,100605.28
2022-10-22T21:01:52.106Z,100608.28
2022-10-22T21:04:20.851Z,100616.84
2022-10-22T21:06:48.677Z,100605.31
2022-10-22T21:09:17.542Z,100608.72
2022-10-22T21:11:44.096Z,100599.75
2022-10-22T21:14:12.207Z,100615.94
2022-10-22T21:16:43.306Z,100608.31
2022-10-22T21:19:12.293Z,100616.09
2022-10-22T21:21:38.812Z,100612.03
2022-10-22T21:24:05.362Z,100614.31
2022-10-22T21:26:31.788Z,100617.81
2022-10-22T21:28:58.198Z,100615.09
2022-10-22T21:31:26.417Z,100617.81
2022-10-22T21:33:55.315Z,100617.78
2022-10-22T21:36:23.572Z,100613.94
2022-10-22T21:38:51.898Z,100608.84
2022-10-22T21:41:20.262Z,100607.16
2022-10-22T21:43:46.868Z,100607.75
2022-10-22T21:46:16.225Z,100601.44
2022-10-22T21:48:43.034Z,100612.75
2022-10-22T21:51:10.993Z,100602.84
2022-10-22T21:53:37.770Z,100598.19
2022-10-22T21:56:05.108Z,100595.03
2022-10-22T21:58:36.795Z,100596.59
2022-10-22T22:01:04.010Z,100602.84
2022-10-22T22:03:32.847Z,100605.31
2022-10-22T22:06:00.769Z,100604.03
2022-10-22T22:08:30.253Z,100598.94
2022-10-22T22:11:05.897Z,100603.09
2022-10-22T22:13:32.917Z,100612.81
2022-10-22T22:16:05.308Z,100606.09
2022-10-22T22:18:32.928Z,100604.41
2022-10-22T22:21:00.177Z,100601.22
2022-10-22T22:23:26.820Z,100598.00
2022-10-22T22:25:55.754Z,100605.59
2022-10-22T22:28:24.707Z,100599.78
2022-10-22T22:30:51.140Z,100614.69
2022-10-22T22:33:17.693Z,100613.84
2022-10-22T22:35:44.566Z,100609.97
2022-10-22T22:38:11.062Z,100600.28
2022-10-22T22:40:43.273Z,100602.84
2022-10-22T22:43:10.461Z,100603.94
2022-10-22T22:45:39.624Z,100606.84
2022-10-22T22:48:06.480Z,100608.03
2022-10-22T22:50:32.962Z,100604.34
2022-10-22T22:52:59.401Z,100596.06
2022-10-22T22:55:26.588Z,100598.19
2022-10-22T22:57:55.306Z,100591.84
2022-10-22T23:00:21.765Z,100586.84
2022-10-22T23:02:48.120Z,100591.66
2022-10-22T23:05:16.980Z,100587.88
2022-10-22T23:07:43.346Z,100583.38
2022-10-22T23:10:12.013Z,100576.03
2022-10-22T23:12:41.193Z,100578.88
2022-10-22T23:15:08.122Z,100582.66
2022-10-22T23:20:01.911Z,100588.25
2022-10-22T23:22:32.888Z,100580.63
2022-10-22T23:25:01.438Z,100585.63
2022-10-22T23:27:27.890Z,100580.28
2022-10-22T23:29:54.289Z,100579.59
2022-10-22T23:32:22.906Z,100582.09
2022-10-22T23:34:49.678Z,100582.94
2022-10-22T23:37:16.101Z,100584.53
2022-10-22T23:39:42.470Z,100590.38
2022-10-22T23:42:09.414Z,100596.22
2022-10-22T23:44:35.888Z,100584.81
2022-10-22T23:47:02.285Z,100585.47
2022-10-22T23:49:31.496Z,100589.50
2022-10-22T23:51:57.898Z,100584.81
2022-10-22T23:54:26.614Z,100579.75
2022-10-22T23:56:53.077Z,100582.91
2022-10-22T23:59:19.511Z,100580.84
